Time;durP1;ratioP1;P1;durP2;ratioP2;P2;SDS_P1;SDS_P2;PMS_P1;PMS_P2;Temp;Humidity;BMP_temperature;BMP_pressure;BME280_temperature;BME280_humidity;BME280_pressure;Samples;Min_cycle;Max_cycle;Signal;HPM_P1;HPM_P2
2023/10/02 00:01:41;;;;;;;17.38;4.75;;;;;;;13.51;97.97;99218.53;4157076;28;20209;-50
2023/10/02 00:03:48;;;;;;;3.95;3.13;;;;;;;13.48;97.91;99223.69;4157094;28;20246;-48
2023/10/02 00:05:53;;;;;;;5.03;3.90;;;;;;;13.46;97.48;99215.72;4157319;28;20694;-54
2023/10/02 00:07:54;;;;;;;5.63;4.32;;;;;;;13.49;97.13;99217.94;4156287;28;20728;-51
2023/10/02 00:09:56;;;;;;;7.55;3.75;;;;;;;13.45;96.70;99222.31;4149700;28;20746;-51
2023/10/02 00:12:01;;;;;;;6.25;3.75;;;;;;;13.38;96.24;99213.38;4156450;28;20220;-49
2023/10/02 00:14:23;;;;;;;7.65;5.40;;;;;;;13.35;97.11;99222.13;4157287;28;20204;-52
2023/10/02 00:16:25;;;;;;;5.40;4.38;;;;;;;13.28;96.41;99209.63;4155488;28;20228;-51
2023/10/02 00:18:27;;;;;;;8.52;4.18;;;;;;;13.24;96.94;99214.78;4157571;28;20209;-52
2023/10/02 00:20:29;;;;;;;6.97;4.05;;;;;;;13.20;96.30;99224.63;4157169;28;20208;-53
2023/10/02 00:22:38;;;;;;;6.30;4.78;;;;;;;13.15;96.94;99210.81;4154081;28;20208;-48
2023/10/02 00:24:41;;;;;;;7.88;3.42;;;;;;;13.10;96.47;99213.44;4157400;28;20578;-50
2023/10/02 00:26:43;;;;;;;7.13;5.07;;;;;;;13.11;96.21;99220.63;4155525;28;20228;-51
2023/10/02 00:28:45;;;;;;;9.32;3.95;;;;;;;13.10;96.37;99221.69;4159329;28;20208;-48
2023/10/02 00:30:48;;;;;;;10.90;5.28;;;;;;;13.12;96.69;99222.31;4160280;28;20694;-49
2023/10/02 00:32:51;;;;;;;6.38;3.60;;;;;;;13.10;96.87;99221.69;4168333;28;20208;-48
2023/10/02 00:34:53;;;;;;;6.70;5.00;;;;;;;13.07;96.62;99219.47;4151433;28;20241;-49
2023/10/02 00:36:55;;;;;;;5.57;3.40;;;;;;;13.07;96.24;99213.97;4159610;28;20319;-49
2023/10/02 00:39:25;;;;;;;10.82;4.15;;;;;;;13.10;96.75;99213.44;4157874;28;20212;-49
2023/10/02 00:41:19;;;;;;;6.22;5.05;;;;;;;13.06;97.09;99217.81;4176892;28;20265;-52
2023/10/02 00:43:33;;;;;;;5.13;3.03;;;;;;;13.01;96.69;99211.38;4158838;28;20213;-49
2023/10/02 00:45:38;;;;;;;13.35;4.70;;;;;;;12.96;96.66;99223.09;4159762;28;20315;-50
2023/10/02 00:47:50;;;;;;;6.35;4.18;;;;;;;12.92;96.56;99221.91;4160102;28;20212;-49
2023/10/02 00:50:06;;;;;;;8.48;3.67;;;;;;;12.95;97.05;99220.59;4155907;28;20213;-51
2023/10/02 00:52:09;;;;;;;4.53;3.92;;;;;;;12.96;97.01;99222.28;4153693;28;20208;-52
2023/10/02 00:54:27;;;;;;;5.07;4.53;;;;;;;12.91;97.33;99224.91;4172004;28;20243;-51
2023/10/02 00:56:30;;;;;;;10.25;4.38;;;;;;;12.87;96.62;99227.31;4156424;28;20232;-50
2023/10/02 00:58:32;;;;;;;6.60;3.97;;;;;;;12.89;97.21;99222.41;4131409;28;20210;-49
2023/10/02 01:00:37;;;;;;;5.55;4.35;;;;;;;12.82;97.09;99220.88;4148878;28;20209;-50
2023/10/02 01:02:40;;;;;;;8.88;3.60;;;;;;;12.85;97.45;99220.41;4154746;28;20230;-50
2023/10/02 01:04:42;;;;;;;6.35;4.65;;;;;;;12.79;97.09;99216.75;4151482;28;20645;-49
2023/10/02 01:09:05;;;;;;;5.72;4.57;;;;;;;12.77;97.33;99210.63;4172790;28;20211;-50
2023/10/02 01:11:13;;;;;;;8.07;4.50;;;;;;;12.69;97.27;99216.53;4149456;28;20247;-49
2023/10/02 01:13:17;;;;;;;4.75;2.90;;;;;;;12.69;97.58;99219.28;4150016;28;20208;-54
2023/10/02 01:15:21;;;;;;;7.95;3.38;;;;;;;12.67;97.73;99207.72;4156061;28;20625;-49
2023/10/02 01:17:33;;;;;;;7.57;3.95;;;;;;;12.71;97.75;99214.38;4157239;28;20216;-50
2023/10/02 01:19:54;;;;;;;6.78;4.38;;;;;;;12.73;97.79;99216.88;4156188;28;20387;-53
2023/10/02 01:21:58;;;;;;;8.02;3.25;;;;;;;12.73;97.93;99217.72;4156189;28;20236;-51
2023/10/02 01:24:10;;;;;;;4.55;2.90;;;;;;;12.74;97.99;99213.03;4139954;28;20219;-51
2023/10/02 01:26:16;;;;;;;4.75;3.22;;;;;;;12.65;97.88;99215.34;4155920;28;20713;-49
2023/10/02 01:28:25;;;;;;;5.13;3.35;;;;;;;12.65;97.53;99209.84;4153117;28;20264;-49
2023/10/02 01:30:27;;;;;;;3.83;2.63;;;;;;;12.67;97.73;99209.63;4151621;28;20296;-51
2023/10/02 01:32:29;;;;;;;6.35;3.80;;;;;;;12.57;98.38;99215.75;4155932;28;20212;-49
2023/10/02 01:34:39;;;;;;;5.40;3.28;;;;;;;12.51;98.29;99208.50;4156086;28;20944;-50
2023/10/02 01:36:41;;;;;;;5.13;3.40;;;;;;;12.51;98.51;99208.50;4151502;28;20618;-48
2023/10/02 01:38:44;;;;;;;8.80;4.55;;;;;;;12.46;98.42;99215.81;4156199;28;20251;-49
2023/10/02 01:40:54;;;;;;;5.47;4.43;;;;;;;12.48;98.67;99213.66;4155950;28;20213;-49
2023/10/02 01:43:11;;;;;;;4.88;3.38;;;;;;;12.47;98.82;99212.81;4154972;28;20662;-51
2023/10/02 01:45:13;;;;;;;6.00;3.22;;;;;;;12.49;99.02;99218.91;4143285;28;20259;-49
2023/10/02 01:47:15;;;;;;;6.57;2.38;;;;;;;12.56;99.49;99205.03;4156403;28;20216;-48
2023/10/02 01:49:27;;;;;;;5.18;2.90;;;;;;;12.55;100.00;99209.69;4156865;28;20283;-50
2023/10/02 01:51:31;;;;;;;5.82;4.00;;;;;;;12.52;99.48;99204.69;4151693;28;20201;-54
2023/10/02 01:53:33;;;;;;;4.45;3.00;;;;;;;12.55;99.47;99200.59;4152169;28;20240;-55
2023/10/02 01:55:35;;;;;;;4.65;3.53;;;;;;;12.59;99.65;99205.38;4156174;28;20525;-53
2023/10/02 01:57:37;;;;;;;3.80;3.17;;;;;;;12.56;99.55;99200.38;4155336;28;20223;-51
2023/10/02 01:59:39;;;;;;;5.50;3.53;;;;;;;12.53;99.76;99195.38;4150712;28;20256;-53
2023/10/02 02:01:57;;;;;;;3.80;2.97;;;;;;;12.52;100.00;99196.47;4168348;28;20204;-48
2023/10/02 02:04:01;;;;;;;5.28;3.97;;;;;;;12.49;100.00;99194.19;4163436;28;20295;-50
2023/10/02 02:06:10;;;;;;;13.95;2.20;;;;;;;12.50;99.73;99200.53;4155895;28;20228;-48
2023/10/02 02:08:21;;;;;;;5.93;2.97;;;;;;;12.52;99.56;99209.34;4156084;28;20208;-50
2023/10/02 02:10:27;;;;;;;7.90;3.20;;;;;;;12.49;99.36;99207.06;4140849;28;20247;-50
2023/10/02 02:12:44;;;;;;;3.72;3.35;;;;;;;12.48;98.98;99203.50;4156196;28;20208;-50
2023/10/02 02:14:50;;;;;;;5.80;3.47;;;;;;;12.47;98.92;99201.84;4156102;28;20216;-50
2023/10/02 02:16:53;;;;;;;6.75;3.10;;;;;;;12.47;98.87;99201.84;4153990;28;20259;-48
2023/10/02 02:18:55;;;;;;;6.78;3.75;;;;;;;12.46;98.92;99202.09;4155821;28;20218;-49
2023/10/02 02:20:59;;;;;;;4.05;3.55;;;;;;;12.36;98.85;99194.47;4155712;28;20200;-51
2023/10/02 02:23:07;;;;;;;6.53;3.67;;;;;;;12.35;98.86;99198.31;4155418;28;20678;-51
2023/10/02 02:25:09;;;;;;;3.58;2.65;;;;;;;12.30;99.39;99195.47;4158517;28;20208;-51
2023/10/02 02:27:11;;;;;;;4.68;3.15;;;;;;;12.27;99.22;99195.97;4154373;28;20674;-49
2023/10/02 02:29:26;;;;;;;4.63;2.97;;;;;;;12.22;98.84;99198.59;4156424;28;20292;-51
2023/10/02 02:31:29;;;;;;;5.78;4.30;;;;;;;12.22;98.88;99201.34;4163884;28;20228;-50
2023/10/02 02:33:38;;;;;;;5.50;3.13;;;;;;;12.17;98.90;99205.91;4162088;28;20208;-51
2023/10/02 02:35:40;;;;;;;7.15;4.03;;;;;;;12.19;99.26;99212.81;4158030;28;20228;-51
2023/10/02 02:37:43;;;;;;;7.55;3.90;;;;;;;12.20;99.08;99206.25;4151196;28;20204;-49
2023/10/02 02:39:45;;;;;;;6.10;4.25;;;;;;;12.21;98.85;99202.44;4155233;28;20327;-50
2023/10/02 02:42:08;;;;;;;3.67;3.38;;;;;;;12.24;99.46;99196.44;4170907;28;20263;-50
2023/10/02 02:44:36;;;;;;;3.50;2.97;;;;;;;12.15;99.39;99203.41;4158932;28;20260;-49
2023/10/02 02:46:53;;;;;;;4.65;3.58;;;;;;;12.13;99.52;99199.22;4154738;28;20276;-53
2023/10/02 02:48:56;;;;;;;4.97;3.30;;;;;;;12.16;99.39;99205.06;4158795;28;20263;-51
2023/10/02 02:51:14;;;;;;;6.35;3.00;;;;;;;12.14;99.20;99201.72;4158226;28;20237;-51
2023/10/02 02:53:16;;;;;;;4.57;4.03;;;;;;;12.07;98.79;99211.16;4144326;28;20563;-51
2023/10/02 02:55:22;;;;;;;6.47;4.05;;;;;;;12.06;98.52;99204.88;4156416;28;20208;-49
2023/10/02 02:57:26;;;;;;;5.35;3.45;;;;;;;12.12;99.04;99197.56;4159590;28;20216;-48
2023/10/02 02:59:28;;;;;;;6.10;4.50;;;;;;;12.04;98.93;99204.25;4176215;28;20758;-50
2023/10/02 03:01:30;;;;;;;6.28;3.53;;;;;;;12.02;98.70;99194.59;4159148;28;20204;-53
2023/10/02 03:03:41;;;;;;;5.65;3.38;;;;;;;11.99;99.01;99195.94;4159316;28;20208;-51
2023/10/02 03:05:43;;;;;;;7.47;4.18;;;;;;;11.96;99.27;99204.63;4152884;28;20259;-51
2023/10/02 03:07:45;;;;;;;5.75;3.80;;;;;;;11.93;100.00;99194.16;4156757;28;20601;-50
2023/10/02 03:09:47;;;;;;;7.45;3.38;;;;;;;11.88;99.63;99190.47;4157055;28;20201;-49
2023/10/02 03:11:50;;;;;;;5.53;4.00;;;;;;;11.86;99.59;99198.94;4179361;28;20232;-49
2023/10/02 03:14:11;;;;;;;5.20;3.50;;;;;;;11.91;100.00;99195.47;4151141;28;20220;-50
2023/10/02 03:16:28;;;;;;;7.18;4.10;;;;;;;11.88;100.00;99199.53;4152231;28;20233;-49
2023/10/02 03:18:31;;;;;;;7.30;3.13;;;;;;;11.84;100.00;99201.06;4158301;28;20204;-55
2023/10/02 03:20:35;;;;;;;5.70;3.55;;;;;;;11.85;99.74;99201.94;4157967;28;20204;-50
2023/10/02 03:22:37;;;;;;;4.45;3.05;;;;;;;11.88;99.92;99201.44;4175792;28;20243;-51
2023/10/02 03:24:39;;;;;;;5.03;3.95;;;;;;;11.85;99.95;99197.25;4157807;28;20504;-50
2023/10/02 03:26:43;;;;;;;6.18;4.72;;;;;;;11.84;99.80;99200.25;4168936;28;20725;-49
2023/10/02 03:28:46;;;;;;;5.20;3.78;;;;;;;11.82;100.00;99197.75;4157564;28;20259;-49
2023/10/02 03:30:49;;;;;;;6.15;3.45;;;;;;;11.77;100.00;99194.91;4155451;28;20228;-50
2023/10/02 03:32:51;;;;;;;4.38;3.58;;;;;;;11.82;100.00;99199.66;4155500;28;20205;-49
2023/10/02 03:35:02;;;;;;;6.18;3.72;;;;;;;11.80;100.00;99199.06;4151840;28;20248;-51
2023/10/02 03:39:23;;;;;;;4.93;3.88;;;;;;;11.74;100.00;99206.34;4176301;28;20204;-52
2023/10/02 03:41:44;;;;;;;7.90;3.50;;;;;;;11.72;99.63;99203.00;4173226;28;20717;-50
2023/10/02 03:43:49;;;;;;;2.92;2.17;;;;;;;11.72;99.68;99203.00;4143013;28;20209;-51
2023/10/02 03:45:51;;;;;;;4.57;3.17;;;;;;;11.72;99.23;99202.19;4157022;28;20228;-52
2023/10/02 03:48:02;;;;;;;4.88;2.72;;;;;;;11.71;99.42;99206.81;4158237;28;20704;-50
2023/10/02 03:50:10;;;;;;;3.83;2.70;;;;;;;11.72;99.07;99208.47;4157173;28;20674;-49
2023/10/02 03:52:13;;;;;;;6.43;2.97;;;;;;;11.74;98.85;99209.09;4157216;28;20204;-50
2023/10/02 03:54:18;;;;;;;4.18;2.95;;;;;;;11.72;99.25;99203.00;4157466;28;20659;-49
2023/10/02 03:56:42;;;;;;;4.95;3.00;;;;;;;11.70;99.54;99205.16;4168132;28;20228;-50
2023/10/02 03:58:44;;;;;;;4.35;3.65;;;;;;;11.64;99.33;99205.28;4157570;28;20239;-50
2023/10/02 04:00:50;;;;;;;8.38;4.10;;;;;;;11.61;98.87;99205.75;4173200;28;20348;-50
2023/10/02 04:02:57;;;;;;;8.93;2.78;;;;;;;11.60;98.71;99202.22;4157176;28;20200;-50
2023/10/02 04:05:00;;;;;;;5.68;3.72;;;;;;;11.59;98.55;99203.28;4168669;28;20244;-49
2023/10/02 04:07:02;;;;;;;5.68;3.30;;;;;;;11.57;98.40;99191.66;4174120;28;20235;-49
2023/10/02 04:11:21;;;;;;;3.72;2.45;;;;;;;11.58;98.68;99198.84;4175444;28;20219;-51
2023/10/02 04:13:31;;;;;;;4.13;2.55;;;;;;;11.57;99.03;99199.06;4156565;28;20209;-49
2023/10/02 04:15:38;;;;;;;5.32;2.88;;;;;;;11.50;98.86;99195.63;4159065;28;20710;-50
2023/10/02 04:17:49;;;;;;;5.72;3.45;;;;;;;11.47;98.36;99194.19;4156569;28;20724;-50
2023/10/02 04:20:00;;;;;;;7.60;3.92;;;;;;;11.43;98.42;99187.50;4157731;28;20319;-52
2023/10/02 04:22:06;;;;;;;7.13;3.78;;;;;;;11.40;98.50;99188.00;4156039;28;20264;-48
2023/10/02 04:24:11;;;;;;;4.50;3.70;;;;;;;11.41;99.03;99186.94;4151407;28;20209;-49
2023/10/02 04:26:19;;;;;;;6.40;4.22;;;;;;;11.38;99.31;99189.31;4176869;28;20233;-48
2023/10/02 04:28:27;;;;;;;3.75;3.08;;;;;;;11.34;99.37;99188.97;4160705;28;20208;-48
2023/10/02 04:30:35;;;;;;;3.03;2.70;;;;;;;11.31;99.63;99189.41;4161071;28;20219;-51
2023/10/02 04:32:42;;;;;;;3.65;3.30;;;;;;;11.28;99.47;99187.16;4162954;28;20258;-50
2023/10/02 04:34:56;;;;;;;4.40;3.50;;;;;;;11.25;99.51;99184.88;4138895;28;20210;-49
2023/10/02 04:36:58;;;;;;;3.67;2.83;;;;;;;11.25;99.40;99184.88;4152245;28;20240;-49
2023/10/02 04:39:04;;;;;;;5.65;3.47;;;;;;;11.24;99.88;99183.22;4151029;28;20216;-49
2023/10/02 04:41:20;;;;;;;4.85;3.13;;;;;;;11.18;99.68;99184.16;4138113;28;20560;-51
2023/10/02 04:43:28;;;;;;;4.40;4.00;;;;;;;11.17;99.93;99182.50;4156347;28;20208;-49
2023/10/02 04:45:36;;;;;;;7.13;2.85;;;;;;;11.15;100.00;99190.13;4156132;28;20236;-51
2023/10/02 04:47:40;;;;;;;5.72;4.35;;;;;;;11.12;100.00;99190.59;4174857;28;20299;-51
2023/10/02 04:50:33;;;;;;;5.15;3.25;;;;;;;11.11;100.00;99190.84;4157800;28;20208;-53
2023/10/02 04:52:06;;;;;;;11.00;3.55;;;;;;;11.08;100.00;99188.56;4157579;28;20234;-49
2023/10/02 04:54:11;;;;;;;5.85;3.72;;;;;;;11.09;100.00;99188.34;4156414;28;20215;-51
2023/10/02 04:58:27;;;;;;;5.65;4.15;;;;;;;11.05;100.00;99184.41;4175025;28;20212;-49
2023/10/02 05:00:35;;;;;;;4.45;3.30;;;;;;;11.04;100.00;99185.47;4156529;28;20213;-51
2023/10/02 05:02:39;;;;;;;6.45;3.40;;;;;;;11.02;100.00;99184.03;4155959;28;20211;-49
2023/10/02 05:04:42;;;;;;;3.42;3.13;;;;;;;10.96;100.00;99179.50;4171753;28;20656;-49
2023/10/02 05:06:44;;;;;;;3.33;2.28;;;;;;;10.93;99.89;99175.34;4140296;28;20792;-52
2023/10/02 05:10:57;;;;;;;2.95;2.65;;;;;;;10.89;100.00;99184.25;4171457;28;20226;-51
2023/10/02 05:12:59;;;;;;;6.35;3.33;;;;;;;10.89;100.00;99185.09;4150862;28;20278;-49
2023/10/02 05:15:07;;;;;;;8.63;2.80;;;;;;;10.90;100.00;99181.28;4156459;28;20274;-50
2023/10/02 05:17:19;;;;;;;3.50;2.92;;;;;;;10.88;100.00;99184.50;4155358;28;22215;-51
2023/10/02 05:19:54;;;;;;;3.65;3.30;;;;;;;10.89;100.00;99182.38;4141792;28;20689;-49
2023/10/02 05:21:50;;;;;;;3.20;2.50;;;;;;;10.89;100.00;99184.25;4173251;28;20230;-53
2023/10/02 05:24:00;;;;;;;3.63;3.33;;;;;;;10.89;100.00;99185.09;4155734;28;20196;-53
2023/10/02 05:26:04;;;;;;;4.43;3.13;;;;;;;10.88;100.00;99180.69;4156814;28;20312;-50
2023/10/02 05:28:07;;;;;;;3.85;3.05;;;;;;;10.87;100.00;99180.13;4154628;28;20215;-49
2023/10/02 05:30:12;;;;;;;3.30;3.00;;;;;;;10.82;100.00;99182.72;4151491;28;20267;-48
2023/10/02 05:32:23;;;;;;;3.00;2.78;;;;;;;10.81;100.00;99189.25;4155004;28;20233;-48
2023/10/02 05:34:26;;;;;;;3.80;3.42;;;;;;;10.78;100.00;99187.81;4173494;28;20258;-49
2023/10/02 05:36:29;;;;;;;3.00;2.55;;;;;;;10.79;100.00;99204.00;4159294;28;20232;-49
2023/10/02 05:38:33;;;;;;;7.43;2.53;;;;;;;10.82;100.00;99189.84;4156467;28;20761;-50
2023/10/02 05:40:38;;;;;;;7.43;3.05;;;;;;;10.84;100.00;99189.63;4156884;28;20304;-48
2023/10/02 05:42:46;;;;;;;4.47;3.53;;;;;;;10.88;100.00;99200.94;4153420;28;20240;-48
2023/10/02 05:44:48;;;;;;;5.63;3.70;;;;;;;10.84;100.00;99198.66;4159525;28;20213;-48
2023/10/02 05:46:55;;;;;;;8.68;3.63;;;;;;;10.87;100.00;99200.09;4173979;28;20350;-48
2023/10/02 05:49:02;;;;;;;3.75;2.83;;;;;;;10.82;100.00;99198.06;4160200;28;20257;-48
2023/10/02 05:51:12;;;;;;;3.85;3.45;;;;;;;10.82;100.00;99204.63;4156530;28;20334;-48
2023/10/02 05:53:15;;;;;;;4.07;2.42;;;;;;;10.81;100.00;99205.69;4160063;28;20204;-47
2023/10/02 05:55:17;;;;;;;5.68;2.20;;;;;;;10.81;100.00;99208.44;4170879;28;20211;-47
2023/10/02 05:57:19;;;;;;;3.15;2.30;;;;;;;10.83;100.00;99205.22;4155668;28;20275;-48
2023/10/02 05:59:24;;;;;;;4.63;2.67;;;;;;;10.84;100.00;99209.59;4152725;28;20249;-49
2023/10/02 06:01:26;;;;;;;4.10;3.15;;;;;;;10.84;100.00;99209.59;4157569;28;20200;-49
2023/10/02 06:03:36;;;;;;;4.30;3.92;;;;;;;10.84;100.00;99209.59;4159191;28;20216;-48
2023/10/02 06:05:39;;;;;;;5.03;3.22;;;;;;;10.89;100.00;99212.47;4159852;28;20278;-49
2023/10/02 06:08:01;;;;;;;5.00;3.45;;;;;;;10.89;100.00;99214.38;4162814;28;20297;-48
2023/10/02 06:10:25;;;;;;;8.73;2.92;;;;;;;10.90;100.00;99219.63;4163035;28;20246;-48
2023/10/02 06:12:27;;;;;;;5.07;3.47;;;;;;;10.98;100.00;99219.28;4162351;28;20235;-48
2023/10/02 06:14:38;;;;;;;4.97;3.40;;;;;;;10.97;100.00;99209.41;4156979;28;20274;-48
2023/10/02 06:16:42;;;;;;;4.45;3.20;;;;;;;11.05;100.00;99220.00;4159668;28;20310;-49
2023/10/02 06:18:45;;;;;;;5.55;3.58;;;;;;;11.06;100.00;99223.59;4158171;28;20208;-49
2023/10/02 06:20:58;;;;;;;4.60;3.40;;;;;;;11.08;100.00;99215.97;4142826;28;20209;-48
2023/10/02 06:23:19;;;;;;;9.52;4.45;;;;;;;11.14;100.00;99224.09;4160315;28;20209;-48
2023/10/02 06:25:21;;;;;;;5.68;3.17;;;;;;;11.21;100.00;99221.22;4157400;28;20209;-49
2023/10/02 06:27:25;;;;;;;6.60;2.65;;;;;;;11.29;100.00;99216.22;4155395;28;20244;-47
2023/10/02 06:29:37;;;;;;;5.38;3.50;;;;;;;11.54;100.00;99219.56;4159807;28;20658;-48
2023/10/02 06:31:42;;;;;;;6.20;3.85;;;;;;;11.79;100.00;99214.69;4175832;28;20223;-48
2023/10/02 06:33:44;;;;;;;5.30;3.05;;;;;;;12.39;100.00;99213.22;4175791;28;20781;-49
2023/10/02 06:35:46;;;;;;;3.80;2.50;;;;;;;12.92;100.00;99210.94;4162066;28;20228;-49
2023/10/02 06:38:15;;;;;;;4.70;4.18;;;;;;;13.37;100.00;99210.88;4162628;28;20837;-50
2023/10/02 06:40:23;;;;;;;3.00;2.78;;;;;;;13.47;96.55;99219.28;4169178;28;20208;-48
2023/10/02 06:42:25;;;;;;;4.00;3.50;;;;;;;13.60;95.14;99219.78;4173344;28;20200;-49
2023/10/02 06:44:52;;;;;;;5.80;4.07;;;;;;;13.51;92.90;99220.44;4171753;28;20565;-52
2023/10/02 06:46:53;;;;;;;3.83;3.25;;;;;;;13.58;93.27;99216.44;4176018;28;20302;-49
2023/10/02 06:48:58;;;;;;;3.13;2.28;;;;;;;13.70;93.47;99219.09;4158823;28;20219;-50
2023/10/02 06:51:02;;;;;;;5.00;4.32;;;;;;;14.27;93.85;99213.03;4158341;28;20622;-49
2023/10/02 06:53:06;;;;;;;5.00;2.70;;;;;;;14.43;89.04;99209.34;4159844;28;20201;-49
2023/10/02 06:55:11;;;;;;;3.85;2.67;;;;;;;14.22;90.53;99215.72;4158556;28;20216;-51
2023/10/02 06:57:18;;;;;;;2.53;2.38;;;;;;;14.14;91.01;99216.13;4159072;28;20503;-48
2023/10/02 06:59:21;;;;;;;3.83;3.00;;;;;;;14.28;91.24;99217.44;4175295;28;20212;-49
2023/10/02 07:01:27;;;;;;;4.00;2.88;;;;;;;14.03;92.06;99217.06;4157713;28;20272;-48
2023/10/02 07:03:34;;;;;;;3.70;2.42;;;;;;;14.23;92.46;99220.13;4141315;28;20243;-50
2023/10/02 07:05:36;;;;;;;5.00;2.70;;;;;;;14.08;93.01;99214.41;4142891;28;20240;-51
2023/10/02 07:07:37;;;;;;;4.30;2.47;;;;;;;14.24;96.14;99219.03;4158459;28;20216;-49
2023/10/02 07:09:39;;;;;;;2.90;2.17;;;;;;;14.95;91.77;99215.13;4158134;28;20258;-48
2023/10/02 07:11:45;;;;;;;3.08;2.65;;;;;;;15.63;88.45;99216.03;4158319;28;20224;-48
2023/10/02 07:13:56;;;;;;;11.95;2.83;;;;;;;16.45;84.26;99219.84;4158854;28;20958;-49
2023/10/02 07:15:59;;;;;;;4.28;2.15;;;;;;;17.09;80.40;99226.63;4157981;28;20244;-50
2023/10/02 07:18:04;;;;;;;3.67;2.55;;;;;;;17.42;78.10;99226.13;4159502;28;20288;-51
2023/10/02 07:20:10;;;;;;;3.35;2.70;;;;;;;17.73;74.54;99222.25;4156590;28;20205;-52
2023/10/02 07:22:16;;;;;;;11.07;3.33;;;;;;;18.06;75.03;99224.38;4158047;28;20223;-49
2023/10/02 07:24:28;;;;;;;5.63;3.05;;;;;;;18.19;74.60;99232.13;4141662;28;20285;-48
2023/10/02 07:26:51;;;;;;;5.97;2.67;;;;;;;18.42;71.72;99231.50;4175688;28;20737;-54
2023/10/02 07:28:53;;;;;;;4.93;2.03;;;;;;;18.74;71.31;99237.44;4152862;28;20215;-53
2023/10/02 07:30:56;;;;;;;4.88;3.28;;;;;;;19.10;69.85;99233.34;4158528;28;20621;-51
2023/10/02 07:33:03;;;;;;;8.02;3.70;;;;;;;18.90;70.00;99233.47;4152876;28;20233;-49
2023/10/02 07:35:09;;;;;;;7.20;3.08;;;;;;;19.19;69.22;99226.09;4158684;28;20208;-49
2023/10/02 07:37:13;;;;;;;5.07;3.20;;;;;;;19.57;66.83;99228.03;4157962;28;20271;-48
2023/10/02 07:41:36;;;;;;;7.30;2.45;;;;;;;20.53;64.58;99231.50;4158847;28;20205;-48
2023/10/02 07:43:37;;;;;;;5.32;4.15;;;;;;;20.50;62.64;99223.75;4158887;28;20287;-50
2023/10/02 07:45:40;;;;;;;5.25;3.38;;;;;;;19.90;65.35;99213.28;4170053;28;20764;-51
2023/10/02 07:50:03;;;;;;;4.75;3.55;;;;;;;19.79;69.78;99222.84;4159786;28;20260;-52
2023/10/02 07:52:07;;;;;;;5.85;3.17;;;;;;;21.05;62.70;99223.03;4158224;28;20718;-48
2023/10/02 07:54:13;;;;;;;4.85;2.97;;;;;;;21.12;63.70;99223.47;4158176;28;20244;-51
2023/10/02 07:56:16;;;;;;;3.55;2.42;;;;;;;21.84;61.62;99225.69;4156060;28;20672;-49
2023/10/02 07:58:19;;;;;;;7.25;2.70;;;;;;;21.61;62.31;99226.59;4154484;28;20220;-51
2023/10/02 08:00:33;;;;;;;7.15;3.15;;;;;;;21.04;63.93;99224.16;4157782;28;20204;-49
2023/10/02 08:02:35;;;;;;;11.23;4.00;;;;;;;21.33;62.85;99224.81;4143286;28;20213;-51
2023/10/02 08:04:47;;;;;;;4.68;3.15;;;;;;;21.61;62.03;99219.06;4172209;28;20211;-53
2023/10/02 08:06:49;;;;;;;4.43;3.65;;;;;;;22.15;60.99;99221.16;4157440;28;20271;-48
2023/10/02 08:11:54;;;;;;;4.90;2.83;;;;;;;21.80;62.24;99230.19;4126869;28;20299;-49
2023/10/02 08:13:55;;;;;;;5.22;3.33;;;;;;;22.34;61.53;99224.72;4125349;28;20213;-49
2023/10/02 08:16:01;;;;;;;5.10;2.22;;;;;;;22.27;60.85;99218.72;4124725;28;20252;-54
2023/10/02 08:18:04;;;;;;;4.78;2.40;;;;;;;22.23;61.33;99217.69;4142110;28;20235;-52
2023/10/02 08:20:16;;;;;;;6.03;2.92;;;;;;;22.69;60.89;99218.41;4155350;28;20752;-50
2023/10/02 08:22:19;;;;;;;8.52;2.97;;;;;;;23.45;57.85;99221.19;4156177;28;20210;-49
2023/10/02 08:24:21;;;;;;;8.50;3.35;;;;;;;22.31;59.59;99223.34;4140112;28;20260;-52
2023/10/02 08:26:23;;;;;;;10.45;3.20;;;;;;;22.18;61.77;99217.78;4140903;28;20240;-50
2023/10/02 08:28:35;;;;;;;5.28;3.58;;;;;;;21.29;63.50;99219.03;4176035;28;20238;-48
2023/10/02 08:30:37;;;;;;;6.15;3.65;;;;;;;20.70;66.14;99223.50;4173691;28;20214;-48
2023/10/02 08:32:38;;;;;;;5.10;4.00;;;;;;;21.74;63.70;99225.84;4157212;28;20232;-49
2023/10/02 08:34:40;;;;;;;8.30;3.58;;;;;;;22.44;64.12;99224.56;4169239;28;20322;-50
2023/10/02 08:36:43;;;;;;;5.20;3.92;;;;;;;22.94;61.87;99221.50;4157133;28;20267;-50
2023/10/02 08:38:49;;;;;;;6.72;2.80;;;;;;;23.02;62.12;99222.72;4156776;28;20242;-48
2023/10/02 08:40:59;;;;;;;6.47;3.25;;;;;;;22.27;65.84;99235.44;4171145;28;20199;-47
2023/10/02 08:43:05;;;;;;;5.40;3.15;;;;;;;23.02;62.10;99231.94;4153782;28;20216;-49
2023/10/02 08:45:18;;;;;;;5.25;3.40;;;;;;;23.08;64.33;99224.25;4157420;28;21688;-49
2023/10/02 08:47:27;;;;;;;5.95;2.95;;;;;;;23.36;62.01;99223.09;4154887;28;20220;-51
2023/10/02 08:49:30;;;;;;;5.05;3.13;;;;;;;22.83;61.62;99222.06;4159158;28;20296;-50
2023/10/02 08:51:36;;;;;;;4.95;2.25;;;;;;;23.43;61.30;99212.28;4157030;28;20207;-49
2023/10/02 08:53:43;;;;;;;5.25;3.20;;;;;;;23.31;62.45;99212.03;4151334;28;20762;-49
2023/10/02 08:57:51;;;;;;;8.93;4.65;;;;;;;23.87;60.81;99209.50;4173233;28;20227;-49
2023/10/02 09:00:15;;;;;;;3.60;2.72;;;;;;;24.15;59.17;99207.06;4153444;28;20200;-50
2023/10/02 09:02:17;;;;;;;6.88;3.58;;;;;;;24.26;58.53;99205.59;4141154;28;20193;-50
2023/10/02 09:04:22;;;;;;;7.95;3.30;;;;;;;24.57;57.21;99217.63;4152114;28;20246;-50
2023/10/02 09:06:35;;;;;;;7.50;3.80;;;;;;;23.79;60.17;99203.50;4152127;28;20220;-53
2023/10/02 09:09:12;;;;;;;6.47;2.85;;;;;;;24.24;58.17;99216.31;4155719;28;20215;-50
2023/10/02 09:11:01;;;;;;;8.35;3.55;;;;;;;24.54;58.03;99218.22;4174964;28;20211;-49
2023/10/02 09:13:16;;;;;;;4.93;3.03;;;;;;;24.41;58.24;99213.56;4157495;28;20315;-53
2023/10/02 09:15:29;;;;;;;4.78;3.58;;;;;;;24.57;57.40;99217.63;4152256;28;20215;-50
2023/10/02 09:17:44;;;;;;;6.13;3.50;;;;;;;25.06;57.06;99217.25;4168396;28;20203;-50
2023/10/02 09:20:00;;;;;;;5.47;3.13;;;;;;;25.12;56.05;99221.53;4157461;28;20231;-49
2023/10/02 09:22:10;;;;;;;6.57;3.95;;;;;;;24.69;57.12;99220.63;4151841;28;20204;-51
2023/10/02 09:24:19;;;;;;;14.85;3.83;;;;;;;24.74;56.80;99226.06;4167327;28;20645;-51
2023/10/02 09:26:24;;;;;;;5.97;3.53;;;;;;;25.26;56.70;99213.84;4153786;28;20804;-49
2023/10/02 09:28:41;;;;;;;6.22;3.42;;;;;;;25.49;57.75;99215.34;4157117;28;20262;-50
2023/10/02 09:30:47;;;;;;;5.80;3.95;;;;;;;25.46;56.61;99216.00;4154885;28;20559;-49
2023/10/02 09:32:51;;;;;;;4.20;3.17;;;;;;;25.84;55.10;99208.53;4154771;28;20271;-48
2023/10/02 09:35:21;;;;;;;6.15;3.53;;;;;;;25.33;56.29;99200.16;4157937;28;20753;-51
2023/10/02 09:37:35;;;;;;;21.70;4.45;;;;;;;25.25;57.04;99192.56;4157150;28;20212;-48
2023/10/02 09:39:57;;;;;;;5.45;3.25;;;;;;;25.94;55.66;99188.56;4156464;28;20623;-53
2023/10/02 09:42:06;;;;;;;4.35;2.60;;;;;;;25.75;56.16;99196.53;4156675;28;20670;-49
2023/10/02 09:44:16;;;;;;;5.07;2.35;;;;;;;24.32;58.41;99190.31;4156444;28;20218;-52
2023/10/02 09:46:21;;;;;;;3.47;2.50;;;;;;;25.45;56.49;99183.50;4152750;28;20239;-50
2023/10/02 09:50:54;;;;;;;6.10;3.65;;;;;;;26.26;54.95;99179.56;4173448;28;20257;-48
2023/10/02 09:53:24;;;;;;;10.30;3.22;;;;;;;26.17;55.38;99181.59;4156453;28;20788;-51
2023/10/02 09:55:56;;;;;;;3.63;2.38;;;;;;;26.78;53.81;99180.97;4135631;28;20761;-49
2023/10/02 09:57:58;;;;;;;11.00;3.28;;;;;;;27.09;53.64;99170.19;4151365;28;20219;-50
2023/10/02 10:00:34;;;;;;;6.82;2.95;;;;;;;26.24;54.99;99170.66;4156420;28;20212;-50
2023/10/02 10:07:35;;;;;;;7.50;3.58;;;;;;;25.94;55.74;99166.13;4173973;28;20204;-49
2023/10/02 10:09:52;;;;;;;5.85;2.90;;;;;;;26.63;54.86;99159.09;4173525;28;20619;-48
2023/10/02 10:14:37;;;;;;;5.80;2.97;;;;;;;25.30;57.98;99156.00;4156210;28;20211;-48
2023/10/02 10:16:40;;;;;;;5.75;2.72;;;;;;;26.02;55.44;99151.28;4152347;28;20763;-50
2023/10/02 10:21:55;;;;;;;8.32;3.05;;;;;;;25.24;57.77;99146.09;4174469;28;20214;-47
2023/10/02 10:24:32;;;;;;;8.27;4.28;;;;;;;25.63;55.22;99142.25;4171989;28;21165;-48
2023/10/02 10:26:40;;;;;;;10.50;4.97;;;;;;;25.18;56.33;99141.78;4158311;28;20303;-48
2023/10/02 10:28:50;;;;;;;6.35;3.35;;;;;;;24.71;57.14;99137.13;4157364;28;20200;-48
2023/10/02 10:30:56;;;;;;;6.07;3.17;;;;;;;25.05;56.77;99136.34;4172372;28;20203;-49
2023/10/02 10:35:33;;;;;;;6.22;2.83;;;;;;;25.30;55.78;99132.72;4176014;28;20265;-48